Time;durP1;ratioP1;P1;durP2;ratioP2;P2;SDS_P1;SDS_P2;PMS_P1;PMS_P2;Temp;Humidity;BMP_temperature;BMP_pressure;BME280_temperature;BME280_humidity;BME280_pressure;Samples;Min_cycle;Max_cycle;Signal;HPM_P1;HPM_P2
2022/10/05 00:00:28;;;;;;;7.97;4.70;;;11.30;99.90;;;;;;5032270;28;20992;-72
2022/10/05 00:02:58;;;;;;;6.13;3.97;;;11.20;99.90;;;;;;5025843;28;20449;-70
2022/10/05 00:05:31;;;;;;;4.70;3.50;;;11.10;99.90;;;;;;5045419;28;20534;-71
2022/10/05 00:08:11;;;;;;;4.13;3.33;;;11.10;99.90;;;;;;5060187;28;20401;-70
2022/10/05 00:10:41;;;;;;;5.27;4.70;;;11.10;99.90;;;;;;5056781;28;20416;-70
2022/10/05 00:13:14;;;;;;;5.47;3.83;;;11.00;99.90;;;;;;5046794;28;20669;-69
2022/10/05 00:15:43;;;;;;;4.83;2.70;;;11.00;99.90;;;;;;5043677;28;20455;-71
2022/10/05 00:18:18;;;;;;;5.00;3.90;;;11.00;99.90;;;;;;5042262;28;20434;-70
2022/10/05 00:20:48;;;;;;;4.40;3.57;;;11.00;99.90;;;;;;5042915;28;20501;-70
2022/10/05 00:23:20;;;;;;;7.10;4.00;;;11.10;99.90;;;;;;5052133;28;20391;-70
2022/10/05 00:25:48;;;;;;;11.23;3.83;;;11.10;99.90;;;;;;5049099;28;20455;-71
2022/10/05 00:28:20;;;;;;;10.23;3.33;;;11.00;99.90;;;;;;5027633;28;20432;-69
2022/10/05 00:30:49;;;;;;;6.80;3.63;;;11.00;99.90;;;;;;5021877;28;20425;-68
2022/10/05 00:33:19;;;;;;;4.07;3.60;;;11.10;99.90;;;;;;5025488;28;20419;-70
2022/10/05 00:35:48;;;;;;;5.03;3.53;;;11.00;99.90;;;;;;5032462;28;20836;-71
2022/10/05 00:38:16;;;;;;;5.53;3.47;;;11.00;99.90;;;;;;5025526;28;20424;-71
2022/10/05 00:41:00;;;;;;;8.10;3.40;;;10.90;99.90;;;;;;5046685;28;20609;-68
2022/10/05 00:43:57;;;;;;;6.87;5.27;;;10.90;99.90;;;;;;5031885;28;20430;-70
2022/10/05 00:46:32;;;;;;;6.90;4.57;;;10.80;99.90;;;;;;5018718;28;20451;-69
2022/10/05 00:49:12;;;;;;;7.43;4.27;;;10.90;99.90;;;;;;5047306;28;20414;-69
2022/10/05 00:51:45;;;;;;;6.43;4.80;;;11.00;99.90;;;;;;5017890;28;20400;-71
2022/10/05 00:54:24;;;;;;;5.43;4.03;;;11.10;99.90;;;;;;5012283;28;20957;-71
2022/10/05 00:57:19;;;;;;;6.13;4.80;;;11.10;99.90;;;;;;5042559;28;20418;-70
2022/10/05 00:59:59;;;;;;;7.80;4.00;;;11.10;99.90;;;;;;5036893;28;21184;-69
2022/10/05 01:02:36;;;;;;;6.90;3.70;;;11.00;99.90;;;;;;5035610;28;20460;-69
2022/10/05 01:05:13;;;;;;;7.10;3.30;;;11.10;99.90;;;;;;5045868;28;20461;-69
2022/10/05 01:07:49;;;;;;;6.03;4.30;;;11.10;99.90;;;;;;5028860;28;20540;-71
2022/10/05 01:10:26;;;;;;;4.37;3.97;;;11.10;99.90;;;;;;5031162;28;20438;-71
2022/10/05 01:13:02;;;;;;;5.00;3.43;;;11.20;99.90;;;;;;5019544;28;20968;-72
2022/10/05 01:15:36;;;;;;;7.73;4.50;;;11.20;99.90;;;;;;5010144;28;20433;-71
2022/10/05 01:18:12;;;;;;;9.57;3.27;;;11.30;99.90;;;;;;5061885;28;20471;-71
2022/10/05 01:20:52;;;;;;;5.57;3.67;;;11.20;99.90;;;;;;5035326;28;20491;-69
2022/10/05 01:24:03;;;;;;;5.43;3.23;;;11.20;99.90;;;;;;5055033;28;20418;-70
2022/10/05 01:27:03;;;;;;;4.97;3.20;;;11.10;99.90;;;;;;5019135;28;20460;-70
2022/10/05 01:29:38;;;;;;;6.43;3.40;;;11.10;99.90;;;;;;5033084;28;20454;-71
2022/10/05 01:32:16;;;;;;;7.23;3.33;;;11.10;99.90;;;;;;5052594;28;20512;-69
2022/10/05 01:34:50;;;;;;;7.97;4.60;;;11.10;99.90;;;;;;5029769;28;21002;-70
2022/10/05 01:37:26;;;;;;;5.50;4.00;;;11.10;99.90;;;;;;5028869;28;20439;-71
2022/10/05 01:40:02;;;;;;;5.33;4.10;;;11.10;99.90;;;;;;5027926;28;20793;-69
2022/10/05 01:42:40;;;;;;;8.93;3.90;;;11.00;99.90;;;;;;5029349;28;20472;-71
2022/10/05 01:45:20;;;;;;;5.60;3.53;;;10.90;99.90;;;;;;5048215;28;20434;-70
2022/10/05 01:47:51;;;;;;;9.33;3.90;;;10.80;99.90;;;;;;5028120;28;20437;-70
2022/10/05 01:50:30;;;;;;;5.23;3.20;;;10.70;99.90;;;;;;5040154;28;20938;-69
2022/10/05 01:53:08;;;;;;;5.33;3.57;;;10.60;99.90;;;;;;5011043;28;20415;-70
2022/10/05 01:55:43;;;;;;;5.50;4.00;;;10.60;99.90;;;;;;5011046;28;20458;-70
2022/10/05 01:58:22;;;;;;;7.80;3.47;;;10.50;99.90;;;;;;5028565;28;20522;-70
2022/10/05 02:00:58;;;;;;;4.50;3.33;;;10.50;99.90;;;;;;5024272;28;20438;-70
2022/10/05 02:03:31;;;;;;;6.10;3.37;;;10.50;99.90;;;;;;5039798;28;20466;-70
2022/10/05 02:06:06;;;;;;;9.90;3.87;;;10.50;99.90;;;;;;5025128;28;20468;-70
2022/10/05 02:08:39;;;;;;;6.00;3.73;;;10.50;99.90;;;;;;5024232;28;20973;-70
2022/10/05 02:11:09;;;;;;;3.80;3.40;;;10.40;1.00;;;;;;5045540;28;20444;-70
2022/10/05 02:13:42;;;;;;;5.50;3.40;;;10.30;1.00;;;;;;5035000;28;20428;-69
2022/10/05 02:16:17;;;;;;;5.97;4.87;;;10.20;1.00;;;;;;5047235;28;20471;-69
2022/10/05 02:18:50;;;;;;;6.73;4.37;;;10.20;1.00;;;;;;5032482;28;20461;-71
2022/10/05 02:21:21;;;;;;;6.50;3.57;;;10.10;1.00;;;;;;5034166;28;21069;-72
2022/10/05 02:23:54;;;;;;;7.70;4.40;;;10.20;1.00;;;;;;5039598;28;20436;-71
2022/10/05 02:26:24;;;;;;;8.23;4.10;;;10.20;1.00;;;;;;5051384;28;20462;-70
2022/10/05 02:28:58;;;;;;;5.17;3.93;;;10.20;1.00;;;;;;5029997;28;20445;-70
2022/10/05 02:31:36;;;;;;;8.73;4.73;;;10.10;1.00;;;;;;5027028;28;20929;-71
2022/10/05 02:34:24;;;;;;;2.87;2.57;;;10.10;1.00;;;;;;5033435;28;20799;-72
2022/10/05 02:37:12;;;;;;;6.43;4.20;;;10.10;1.00;;;;;;5032201;28;20432;-70
2022/10/05 02:39:53;;;;;;;4.17;3.77;;;10.20;1.00;;;;;;5025132;28;20420;-70
2022/10/05 02:42:28;;;;;;;5.13;4.50;;;10.20;1.00;;;;;;5013666;28;20578;-70
2022/10/05 02:45:09;;;;;;;13.50;4.90;;;10.10;1.00;;;;;;5033382;28;20554;-72
2022/10/05 02:47:46;;;;;;;2.73;2.53;;;10.00;1.00;;;;;;5023014;28;20423;-69
2022/10/05 02:50:26;;;;;;;8.60;5.03;;;10.10;1.00;;;;;;5029839;28;20449;-69
2022/10/05 02:53:04;;;;;;;6.90;4.30;;;10.10;1.00;;;;;;5049471;28;20440;-69
2022/10/05 02:55:38;;;;;;;6.40;3.30;;;10.10;1.00;;;;;;5033637;28;21004;-69
2022/10/05 02:58:12;;;;;;;8.40;6.40;;;10.10;1.00;;;;;;5033342;28;20497;-69
2022/10/05 03:00:46;;;;;;;9.30;4.70;;;10.10;1.00;;;;;;5020231;28;20438;-70
2022/10/05 03:03:23;;;;;;;5.10;4.30;;;10.10;1.00;;;;;;5015786;28;20452;-70
2022/10/05 03:05:58;;;;;;;4.70;4.07;;;10.20;1.00;;;;;;5032416;28;20484;-69
2022/10/05 03:08:34;;;;;;;11.70;5.00;;;10.20;1.00;;;;;;5016825;28;20483;-69
2022/10/05 03:11:11;;;;;;;7.43;3.70;;;10.20;1.00;;;;;;5023787;28;20968;-69
2022/10/05 03:13:48;;;;;;;7.57;4.43;;;10.30;1.00;;;;;;5032436;28;20482;-71
2022/10/05 03:16:40;;;;;;;8.23;3.90;;;10.30;99.90;;;;;;5040580;28;20944;-71
2022/10/05 03:19:22;;;;;;;7.53;3.97;;;10.50;99.90;;;;;;5034038;28;20451;-70
2022/10/05 03:22:01;;;;;;;4.63;3.33;;;10.50;99.90;;;;;;5031508;28;20451;-70
2022/10/05 03:24:47;;;;;;;4.50;3.50;;;10.50;99.90;;;;;;5028690;28;20460;-69
2022/10/05 03:27:27;;;;;;;4.37;2.93;;;10.50;99.90;;;;;;5028432;28;20428;-70
2022/10/05 03:30:04;;;;;;;4.50;3.20;;;10.50;99.90;;;;;;5027634;28;20471;-71
2022/10/05 03:32:47;;;;;;;6.37;4.20;;;10.50;99.90;;;;;;5028206;28;20511;-70
2022/10/05 03:35:23;;;;;;;7.03;3.47;;;10.50;99.90;;;;;;5012095;28;20798;-70
2022/10/05 03:38:01;;;;;;;5.00;3.53;;;10.60;99.90;;;;;;5026074;28;20458;-71
2022/10/05 03:40:35;;;;;;;5.23;4.20;;;10.70;99.90;;;;;;5024669;28;20451;-71
2022/10/05 03:43:21;;;;;;;4.07;3.40;;;10.70;99.90;;;;;;5033438;28;20511;-70
2022/10/05 03:45:58;;;;;;;12.13;3.67;;;10.70;99.90;;;;;;5013017;28;20465;-69
2022/10/05 03:48:30;;;;;;;4.17;3.13;;;10.70;99.90;;;;;;5031372;28;20899;-70
2022/10/05 03:51:07;;;;;;;5.70;3.67;;;10.70;99.90;;;;;;5041118;28;20863;-70
2022/10/05 03:53:43;;;;;;;6.33;3.40;;;10.80;99.90;;;;;;5042329;28;20493;-71
2022/10/05 03:56:18;;;;;;;5.00;3.97;;;10.80;99.90;;;;;;5053724;28;20458;-69
2022/10/05 03:58:52;;;;;;;5.33;2.60;;;10.90;99.90;;;;;;5028600;28;20437;-71
2022/10/05 04:01:26;;;;;;;5.60;3.40;;;10.90;99.90;;;;;;5032248;28;20469;-69
2022/10/05 04:03:58;;;;;;;7.63;3.63;;;10.80;99.90;;;;;;5017415;28;20741;-69
2022/10/05 04:06:34;;;;;;;6.80;4.20;;;10.90;99.90;;;;;;5022540;28;20466;-70
2022/10/05 04:09:10;;;;;;;7.83;3.90;;;10.90;99.90;;;;;;5043602;28;20440;-69
2022/10/05 04:11:44;;;;;;;6.30;3.83;;;11.00;99.90;;;;;;5028071;28;20423;-71
2022/10/05 04:14:17;;;;;;;5.87;3.57;;;11.10;99.90;;;;;;5041787;28;20436;-69
2022/10/05 04:16:51;;;;;;;8.60;3.50;;;11.00;99.90;;;;;;5048288;28;20965;-70
2022/10/05 04:19:23;;;;;;;12.70;3.50;;;10.90;99.90;;;;;;5032566;28;20417;-71
2022/10/05 04:22:00;;;;;;;4.50;3.10;;;10.90;99.90;;;;;;5048052;28;20484;-70
2022/10/05 04:24:35;;;;;;;9.00;4.87;;;10.80;99.90;;;;;;5031278;28;20501;-71
2022/10/05 04:27:09;;;;;;;16.47;3.67;;;10.90;99.90;;;;;;5057504;28;20442;-71
2022/10/05 04:29:42;;;;;;;12.97;4.83;;;10.90;99.90;;;;;;5048858;28;20490;-69
2022/10/05 04:32:35;;;;;;;5.47;3.40;;;10.90;99.90;;;;;;5027156;28;20940;-70
2022/10/05 04:35:33;;;;;;;3.70;3.40;;;11.00;99.90;;;;;;5027777;28;20460;-70
2022/10/05 04:38:16;;;;;;;4.10;3.70;;;11.00;99.90;;;;;;5047455;28;20479;-71
2022/10/05 04:41:03;;;;;;;6.20;3.10;;;11.00;99.90;;;;;;5010782;28;20971;-70
2022/10/05 04:43:44;;;;;;;5.00;3.33;;;11.00;99.90;;;;;;5019165;28;20446;-70
2022/10/05 04:46:23;;;;;;;5.27;3.13;;;11.00;99.90;;;;;;5029623;28;20503;-70
2022/10/05 04:49:18;;;;;;;6.70;3.87;;;11.00;99.90;;;;;;5030785;28;20502;-70
2022/10/05 04:51:53;;;;;;;5.87;3.77;;;11.00;99.90;;;;;;5050158;28;20429;-70
2022/10/05 04:54:37;;;;;;;7.80;3.33;;;11.00;99.90;;;;;;5049389;28;20439;-69
2022/10/05 04:57:11;;;;;;;4.97;3.33;;;11.00;99.90;;;;;;5048381;28;20418;-70
2022/10/05 05:00:03;;;;;;;4.67;3.43;;;10.90;99.90;;;;;;5063714;28;20505;-69
2022/10/05 05:02:50;;;;;;;5.27;3.60;;;10.80;99.90;;;;;;5049438;28;20464;-71
2022/10/05 05:05:27;;;;;;;4.70;3.47;;;10.80;99.90;;;;;;5048572;28;20486;-69
2022/10/05 05:08:09;;;;;;;6.50;3.50;;;10.80;99.90;;;;;;5059722;28;20442;-69
2022/10/05 05:11:09;;;;;;;11.17;3.90;;;10.80;99.90;;;;;;5047387;28;20427;-69
2022/10/05 05:14:07;;;;;;;7.00;2.90;;;10.80;99.90;;;;;;5033938;28;20419;-69
2022/10/05 05:16:39;;;;;;;3.90;3.07;;;10.80;99.90;;;;;;5022596;28;20474;-69
2022/10/05 05:19:33;;;;;;;6.53;4.37;;;10.90;99.90;;;;;;5048943;28;21008;-70
2022/10/05 05:22:06;;;;;;;4.27;3.80;;;11.00;99.90;;;;;;5031684;28;20954;-69
2022/10/05 05:24:51;;;;;;;7.20;3.67;;;11.00;99.90;;;;;;5041744;28;21142;-71
2022/10/05 05:27:38;;;;;;;10.27;3.60;;;10.90;99.90;;;;;;5029982;28;20676;-69
2022/10/05 05:30:16;;;;;;;5.83;3.90;;;10.90;99.90;;;;;;5032927;28;20925;-70
2022/10/05 05:33:01;;;;;;;4.60;3.87;;;10.90;99.90;;;;;;5036589;28;20446;-69
2022/10/05 05:36:05;;;;;;;10.03;4.93;;;10.90;99.90;;;;;;5025945;28;20500;-69
2022/10/05 05:38:37;;;;;;;4.93;3.50;;;10.90;99.90;;;;;;5029184;28;20507;-71
2022/10/05 05:41:11;;;;;;;7.80;4.40;;;11.00;99.90;;;;;;5041047;28;20494;-69
2022/10/05 05:44:03;;;;;;;6.67;4.83;;;11.00;99.90;;;;;;5042440;28;20478;-70
2022/10/05 05:46:37;;;;;;;7.63;3.90;;;11.00;99.90;;;;;;5042547;28;20489;-70
2022/10/05 05:49:35;;;;;;;9.80;4.90;;;11.10;99.90;;;;;;5049965;28;20478;-72
2022/10/05 05:52:11;;;;;;;5.93;3.80;;;11.20;99.90;;;;;;5040039;28;20461;-69
2022/10/05 05:54:44;;;;;;;6.07;4.43;;;11.30;99.90;;;;;;5037191;28;20812;-69
2022/10/05 05:57:17;;;;;;;11.30;3.53;;;11.40;99.90;;;;;;5030625;28;20443;-70
2022/10/05 06:00:26;;;;;;;4.03;3.33;;;11.60;99.90;;;;;;5015236;28;20441;-68
2022/10/05 06:03:06;;;;;;;9.33;4.00;;;11.50;99.90;;;;;;5043415;28;20492;-69
2022/10/05 06:05:42;;;;;;;7.37;3.90;;;11.60;99.90;;;;;;5037385;28;20447;-70
2022/10/05 06:08:18;;;;;;;7.93;3.40;;;11.60;99.90;;;;;;5027090;28;20819;-70
2022/10/05 06:10:55;;;;;;;8.63;4.53;;;11.60;99.90;;;;;;5031283;28;20887;-68
2022/10/05 06:13:28;;;;;;;7.37;4.33;;;11.60;99.90;;;;;;5030073;28;20980;-69
2022/10/05 06:16:04;;;;;;;10.47;4.87;;;11.70;99.90;;;;;;5041520;28;20839;-70
2022/10/05 06:18:34;;;;;;;10.97;4.10;;;11.70;99.90;;;;;;5038066;28;20409;-68
2022/10/05 06:21:10;;;;;;;5.07;4.50;;;11.70;99.90;;;;;;5037366;28;20405;-70
2022/10/05 06:23:46;;;;;;;4.20;3.13;;;11.70;99.90;;;;;;5023541;28;21002;-69
2022/10/05 06:26:24;;;;;;;7.30;3.07;;;11.80;99.90;;;;;;5050290;28;20518;-69
2022/10/05 06:28:59;;;;;;;8.90;3.93;;;11.90;99.90;;;;;;5020545;28;20442;-68
2022/10/05 06:31:52;;;;;;;5.30;4.10;;;12.00;99.90;;;;;;5028422;28;20418;-69
2022/10/05 06:34:53;;;;;;;4.50;3.70;;;12.10;99.90;;;;;;5053743;28;20481;-69
2022/10/05 06:37:35;;;;;;;8.03;3.80;;;12.30;99.90;;;;;;5022630;28;20469;-68
2022/10/05 06:40:11;;;;;;;11.60;4.77;;;12.40;99.90;;;;;;5022105;28;20440;-70
2022/10/05 06:43:14;;;;;;;8.60;4.07;;;12.40;99.90;;;;;;5029480;28;20443;-69
2022/10/05 06:46:10;;;;;;;6.13;3.47;;;12.60;99.90;;;;;;5027478;28;20993;-69
2022/10/05 06:49:18;;;;;;;6.07;3.77;;;12.60;99.90;;;;;;5007390;28;20423;-68
2022/10/05 06:51:59;;;;;;;7.67;4.10;;;12.70;99.90;;;;;;5032541;28;20414;-69
2022/10/05 06:54:48;;;;;;;7.73;5.10;;;12.80;99.90;;;;;;5039234;28;20456;-69
2022/10/05 06:57:52;;;;;;;12.30;7.30;;;12.80;99.90;;;;;;5027382;28;20416;-69
2022/10/05 07:00:23;;;;;;;7.60;4.03;;;12.90;99.90;;;;;;5033615;28;20436;-69
2022/10/05 07:03:02;;;;;;;5.07;3.13;;;12.90;99.90;;;;;;5027691;28;20459;-70
2022/10/05 07:05:51;;;;;;;5.10;3.77;;;12.80;99.90;;;;;;5032762;28;20791;-69
2022/10/05 07:08:36;;;;;;;10.60;4.17;;;12.90;99.90;;;;;;5037204;28;20483;-69
2022/10/05 07:11:16;;;;;;;6.87;4.33;;;12.90;99.90;;;;;;5021047;28;20414;-69
2022/10/05 07:16:54;;;;;;;5.87;4.00;;;12.90;99.90;;;;;;5013199;28;20436;-70
2022/10/05 07:19:33;;;;;;;4.30;3.87;;;13.00;99.90;;;;;;4992158;28;20888;-69
2022/10/05 07:22:20;;;;;;;5.10;4.00;;;13.20;99.90;;;;;;4995249;28;20472;-70
2022/10/05 07:24:57;;;;;;;7.43;4.70;;;13.20;99.90;;;;;;5030284;28;20532;-70
2022/10/05 07:27:33;;;;;;;5.10;4.07;;;13.30;99.90;;;;;;5010475;28;20471;-70
2022/10/05 07:30:05;;;;;;;7.07;5.00;;;13.30;99.90;;;;;;5022154;28;20471;-70
2022/10/05 07:32:45;;;;;;;6.50;4.13;;;13.40;99.90;;;;;;5015745;28;20460;-70
2022/10/05 07:38:13;;;;;;;6.57;3.30;;;13.80;99.90;;;;;;4993916;28;20438;-69
2022/10/05 07:40:49;;;;;;;6.97;3.33;;;14.10;98.40;;;;;;4998734;28;20492;-69
2022/10/05 07:43:31;;;;;;;5.40;4.10;;;14.20;96.80;;;;;;4997639;28;20404;-69
2022/10/05 07:46:26;;;;;;;5.80;3.03;;;14.30;94.50;;;;;;4998328;28;20868;-69
2022/10/05 07:49:02;;;;;;;6.10;4.00;;;14.50;93.30;;;;;;5003413;28;20441;-68
2022/10/05 07:51:36;;;;;;;6.53;3.60;;;14.60;92.20;;;;;;5004293;28;20459;-68
2022/10/05 07:54:21;;;;;;;9.90;5.37;;;14.70;91.80;;;;;;4998795;28;20575;-70
2022/10/05 08:03:20;;;;;;;3.90;3.20;;;14.80;87.00;;;;;;4988832;28;20424;-69
2022/10/05 08:05:49;;;;;;;5.60;3.10;;;14.90;80.90;;;;;;4994487;28;20659;-69
2022/10/05 08:08:25;;;;;;;8.17;4.03;;;14.90;78.40;;;;;;4990984;28;20426;-69
2022/10/05 08:11:02;;;;;;;16.53;3.97;;;15.00;76.00;;;;;;4988593;28;20720;-69
2022/10/05 08:13:36;;;;;;;5.23;3.37;;;15.10;75.20;;;;;;5012405;28;20412;-69
2022/10/05 08:16:11;;;;;;;5.10;3.77;;;15.20;72.70;;;;;;4997269;28;20439;-69
2022/10/05 08:18:55;;;;;;;10.10;3.60;;;15.30;69.30;;;;;;4992593;28;20923;-69
2022/10/05 08:21:30;;;;;;;4.93;3.40;;;15.30;68.60;;;;;;4991976;28;20496;-71
2022/10/05 08:24:06;;;;;;;3.83;3.37;;;15.30;67.80;;;;;;5005626;28;20506;-71
2022/10/05 08:26:45;;;;;;;10.10;3.30;;;15.30;65.70;;;;;;4998823;28;20491;-70
2022/10/05 08:29:21;;;;;;;10.27;4.33;;;15.40;66.40;;;;;;4991509;28;20401;-70
2022/10/05 08:31:52;;;;;;;4.40;4.00;;;15.40;64.60;;;;;;5017340;22;20496;-67
2022/10/05 08:34:30;;;;;;;5.87;3.07;;;15.40;62.60;;;;;;5027311;28;20463;-68
2022/10/05 08:37:04;;;;;;;4.70;3.40;;;15.40;60.90;;;;;;5013128;28;20476;-67
2022/10/05 08:39:38;;;;;;;7.93;3.17;;;15.50;61.30;;;;;;5019077;28;20949;-69
2022/10/05 08:42:43;;;;;;;5.40;3.47;;;15.60;58.90;;;;;;5026289;28;20422;-68
2022/10/05 08:45:56;;;;;;;10.37;4.27;;;15.40;57.30;;;;;;5019781;28;20572;-68
2022/10/05 08:49:05;;;;;;;3.90;2.53;;;15.50;56.90;;;;;;5023242;28;20448;-67
2022/10/05 08:52:03;;;;;;;5.37;3.57;;;15.70;56.90;;;;;;5016123;28;20420;-68
2022/10/05 08:54:52;;;;;;;5.70;3.77;;;15.90;55.20;;;;;;5011641;28;20555;-68
2022/10/05 08:57:46;;;;;;;5.20;3.47;;;16.10;53.50;;;;;;5017188;28;20461;-68
2022/10/05 09:00:20;;;;;;;4.73;3.30;;;16.20;51.50;;;;;;5022803;28;20410;-68
2022/10/05 09:03:35;;;;;;;4.43;3.40;;;16.20;50.50;;;;;;5023006;28;20423;-68
2022/10/05 09:06:32;;;;;;;3.80;3.30;;;16.30;49.70;;;;;;4977210;28;20487;-69
2022/10/05 09:09:31;;;;;;;6.70;3.60;;;16.30;47.10;;;;;;4999494;28;20444;-67
2022/10/05 09:12:34;;;;;;;8.70;2.83;;;16.40;45.80;;;;;;5013551;28;20427;-68
2022/10/05 09:15:19;;;;;;;5.73;3.30;;;16.40;45.40;;;;;;5017471;28;20447;-68
2022/10/05 09:18:36;;;;;;;5.03;3.47;;;16.60;45.20;;;;;;5024706;28;20464;-67
2022/10/05 09:21:20;;;;;;;4.73;3.20;;;16.70;44.40;;;;;;5006459;28;20441;-68
2022/10/05 09:23:56;;;;;;;6.90;3.47;;;16.80;43.10;;;;;;5022292;28;20412;-67
2022/10/05 09:26:46;;;;;;;11.10;3.67;;;16.80;42.00;;;;;;5016193;28;20462;-69
2022/10/05 09:29:53;;;;;;;4.70;2.97;;;16.90;41.70;;;;;;5016991;28;20432;-67
2022/10/05 09:33:15;;;;;;;4.83;3.40;;;16.60;39.00;;;;;;4990365;28;20933;-67
2022/10/05 09:36:15;;;;;;;8.43;3.90;;;16.60;38.70;;;;;;5016565;28;20545;-68
2022/10/05 09:39:14;;;;;;;5.83;3.20;;;16.80;40.10;;;;;;5017533;28;20819;-67
2022/10/05 09:42:26;;;;;;;5.63;3.67;;;16.90;39.40;;;;;;5020051;28;20510;-67
2022/10/05 09:45:38;;;;;;;8.40;4.00;;;16.90;38.50;;;;;;5012237;28;20876;-68
2022/10/05 09:48:55;;;;;;;5.43;3.10;;;16.80;37.50;;;;;;5028798;28;20454;-68
2022/10/05 09:51:59;;;;;;;3.67;3.37;;;16.80;37.50;;;;;;5018871;28;20465;-68
2022/10/05 09:55:20;;;;;;;8.40;3.10;;;17.00;36.60;;;;;;5021987;28;20447;-68
2022/10/05 09:58:29;;;;;;;5.50;3.60;;;17.00;36.60;;;;;;5018029;28;20634;-67
2022/10/05 10:01:20;;;;;;;5.60;3.50;;;17.20;37.70;;;;;;5012491;28;20536;-69
2022/10/05 10:04:24;;;;;;;5.70;4.07;;;17.30;35.10;;;;;;5018368;28;20403;-67
2022/10/05 10:07:20;;;;;;;5.53;4.03;;;17.20;35.10;;;;;;5014655;28;20507;-68
2022/10/05 10:10:10;;;;;;;6.53;3.10;;;17.20;33.80;;;;;;5021204;28;20433;-67
2022/10/05 10:12:58;;;;;;;5.50;3.30;;;17.00;31.90;;;;;;5016788;28;20429;-67
2022/10/05 10:16:00;;;;;;;3.67;2.90;;;16.80;32.50;;;;;;5026766;28;20458;-67
2022/10/05 10:18:51;;;;;;;5.33;3.83;;;16.70;32.80;;;;;;5021686;28;20940;-68
2022/10/05 10:21:42;;;;;;;6.50;3.93;;;16.60;32.90;;;;;;5015274;28;21002;-67
2022/10/05 10:24:19;;;;;;;6.17;3.10;;;16.70;33.40;;;;;;5017783;28;20430;-68
2022/10/05 10:27:23;;;;;;;3.27;2.97;;;16.60;33.10;;;;;;5017732;28;20494;-68
2022/10/05 10:30:17;;;;;;;4.77;3.40;;;16.70;35.20;;;;;;5018451;28;20450;-68
2022/10/05 10:33:20;;;;;;;5.73;3.47;;;16.80;34.10;;;;;;5027798;28;20436;-67
2022/10/05 10:35:58;;;;;;;11.83;3.77;;;17.00;33.90;;;;;;5021813;28;20441;-67
2022/10/05 10:38:40;;;;;;;6.80;4.13;;;17.10;34.20;;;;;;5005496;28;20415;-66
2022/10/05 10:41:30;;;;;;;7.40;4.27;;;17.20;33.50;;;;;;5017386;28;20448;-67
2022/10/05 10:44:37;;;;;;;7.90;3.90;;;17.20;32.40;;;;;;5026150;28;20406;-69
2022/10/05 10:47:40;;;;;;;5.53;3.73;;;17.20;33.70;;;;;;5016581;28;20974;-71
2022/10/05 10:50:36;;;;;;;4.73;3.57;;;17.20;34.00;;;;;;5020681;28;20480;-67
2022/10/05 10:53:28;;;;;;;13.60;4.50;;;16.90;31.90;;;;;;5015984;28;20402;-69
2022/10/05 10:56:14;;;;;;;7.20;3.80;;;17.10;34.10;;;;;;5007653;28;20460;-66
2022/10/05 10:59:09;;;;;;;4.23;3.13;;;17.10;34.10;;;;;;5008882;28;20900;-68
2022/10/05 11:01:51;;;;;;;4.00;3.60;;;17.40;34.50;;;;;;5007928;28;20922;-68
2022/10/05 11:05:02;;;;;;;6.00;3.60;;;17.50;31.70;;;;;;5016045;28;20561;-65
2022/10/05 11:07:53;;;;;;;4.40;3.53;;;17.50;30.90;;;;;;5010682;28;20424;-68
2022/10/05 11:10:42;;;;;;;5.00;3.13;;;17.50;30.30;;;;;;5006819;28;20426;-67
2022/10/05 11:13:36;;;;;;;4.07;3.67;;;17.70;30.30;;;;;;5027432;28;20773;-67
2022/10/05 11:16:26;;;;;;;4.73;2.93;;;18.10;31.40;;;;;;5007265;28;20428;-67
2022/10/05 11:19:30;;;;;;;5.47;3.60;;;18.50;29.80;;;;;;5024961;28;20453;-67
2022/10/05 11:22:30;;;;;;;7.60;4.33;;;19.00;28.80;;;;;;5011700;28;20528;-67
2022/10/05 11:25:33;;;;;;;13.33;4.40;;;19.30;26.90;;;;;;5012227;28;20518;-67
2022/10/05 11:28:28;;;;;;;17.87;6.27;;;19.70;25.20;;;;;;5020267;28;20522;-67
2022/10/05 11:31:18;;;;;;;8.43;4.10;;;20.00;22.70;;;;;;4988584;28;20496;-67
2022/10/05 11:34:31;;;;;;;5.80;3.20;;;20.10;20.60;;;;;;5018759;28;20445;-66
2022/10/05 11:37:32;;;;;;;4.90;4.00;;;20.20;18.30;;;;;;5025588;28;20519;-68
2022/10/05 11:40:25;;;;;;;6.97;4.00;;;20.20;17.10;;;;;;5025281;28;20457;-68
2022/10/05 11:43:42;;;;;;;7.97;4.50;;;20.20;16.20;;;;;;5011146;28;20764;-67
2022/10/05 11:46:19;;;;;;;4.87;3.57;;;20.20;16.40;;;;;;4987683;28;20480;-69
2022/10/05 11:49:01;;;;;;;4.60;3.50;;;20.20;15.70;;;;;;5031566;28;20608;-68
2022/10/05 11:51:38;;;;;;;4.70;3.80;;;20.20;15.50;;;;;;5020314;28;20464;-68
2022/10/05 11:54:25;;;;;;;7.83;3.80;;;20.30;22.80;;;;;;5030646;28;20711;-67
2022/10/05 11:57:01;;;;;;;4.03;3.23;;;20.00;14.00;;;;;;5023874;28;20459;-68
2022/10/05 11:59:35;;;;;;;4.50;4.10;;;19.80;13.80;;;;;;5022875;28;20472;-67
2022/10/05 12:02:20;;;;;;;5.37;4.10;;;19.70;14.30;;;;;;5005317;28;20421;-68
2022/10/05 12:04:58;;;;;;;6.30;3.30;;;19.60;14.00;;;;;;5020923;28;20989;-67
2022/10/05 12:07:35;;;;;;;5.77;4.37;;;19.50;14.10;;;;;;5026431;28;20456;-68
2022/10/05 12:10:21;;;;;;;3.80;3.43;;;19.60;14.80;;;;;;5021524;28;20422;-66
2022/10/05 12:13:07;;;;;;;4.97;3.50;;;19.40;15.30;;;;;;5022213;28;20511;-69
2022/10/05 12:15:43;;;;;;;6.30;4.50;;;19.50;15.00;;;;;;5011305;28;21149;-68
2022/10/05 12:18:20;;;;;;;4.33;3.80;;;19.60;15.50;;;;;;5020829;28;20403;-68
2022/10/05 12:20:56;;;;;;;4.47;3.57;;;19.80;15.50;;;;;;5014645;28;20425;-67
2022/10/05 12:23:30;;;;;;;4.00;2.90;;;20.10;14.60;;;;;;5015462;28;20508;-68
2022/10/05 12:26:02;;;;;;;5.63;3.77;;;20.20;14.40;;;;;;5021090;28;20501;-68
2022/10/05 12:28:41;;;;;;;6.93;4.53;;;20.20;13.90;;;;;;5016965;28;20459;-67
2022/10/05 12:31:25;;;;;;;9.30;4.50;;;20.30;13.70;;;;;;5016457;28;20431;-69
2022/10/05 12:34:01;;;;;;;5.00;3.43;;;20.40;13.10;;;;;;5013156;28;20441;-66
2022/10/05 12:36:37;;;;;;;3.73;3.43;;;20.40;12.50;;;;;;5015604;28;20469;-68
2022/10/05 12:39:36;;;;;;;4.13;3.43;;;20.40;12.90;;;;;;5015892;28;20957;-67
2022/10/05 12:42:20;;;;;;;4.10;3.73;;;20.20;11.00;;;;;;5016233;28;20454;-68
2022/10/05 12:45:15;;;;;;;5.00;3.00;;;20.20;11.20;;;;;;5015661;28;20931;-67
2022/10/05 12:47:57;;;;;;;5.93;3.80;;;20.30;11.00;;;;;;5027193;28;20452;-67
2022/10/05 12:50:30;;;;;;;4.90;3.43;;;20.20;10.40;;;;;;5021670;28;20907;-67
2022/10/05 12:53:24;;;;;;;7.90;3.43;;;20.30;10.20;;;;;;5017730;28;20490;-66
2022/10/05 12:56:04;;;;;;;4.27;3.30;;;20.30;9.10;;;;;;5007540;28;20435;-67
2022/10/05 12:58:47;;;;;;;6.03;3.53;;;20.30;8.60;;;;;;5015923;28;20443;-67
2022/10/05 13:01:30;;;;;;;4.40;3.60;;;20.20;8.30;;;;;;5024049;28;20457;-68
2022/10/05 13:04:07;;;;;;;3.87;3.13;;;20.40;8.20;;;;;;5022177;28;20415;-67
2022/10/05 13:06:42;;;;;;;5.70;3.40;;;20.40;7.20;;;;;;5020629;28;20441;-67
2022/10/05 13:09:17;;;;;;;5.70;2.90;;;20.40;13.40;;;;;;5027386;28;20432;-67
2022/10/05 13:11:49;;;;;;;4.00;3.60;;;20.40;4.30;;;;;;5015204;28;20403;-68
2022/10/05 13:14:43;;;;;;;3.43;2.80;;;20.50;3.70;;;;;;5016226;28;20946;-67
2022/10/05 13:17:20;;;;;;;3.23;2.87;;;20.50;10.60;;;;;;5020455;28;20500;-66
2022/10/05 13:19:54;;;;;;;3.73;2.80;;;20.40;2.60;;;;;;5018688;28;20430;-66
2022/10/05 13:22:34;;;;;;;6.60;3.40;;;20.30;2.50;;;;;;5017547;28;20817;-66
2022/10/05 13:25:29;;;;;;;5.90;3.00;;;20.30;2.30;;;;;;5027570;28;20519;-67
2022/10/05 13:28:16;;;;;;;3.53;3.23;;;20.30;2.40;;;;;;5016110;28;20473;-67
2022/10/05 13:30:53;;;;;;;4.17;3.77;;;20.40;2.70;;;;;;5023509;28;20451;-66
2022/10/05 13:33:32;;;;;;;3.80;3.40;;;20.40;2.10;;;;;;5021327;28;20439;-66
2022/10/05 13:36:11;;;;;;;5.40;3.40;;;20.50;1.90;;;;;;5021971;28;20447;-66
2022/10/05 13:38:54;;;;;;;3.43;2.80;;;20.50;1.50;;;;;;5019377;28;20525;-66
2022/10/05 13:41:33;;;;;;;4.00;3.60;;;20.70;1.50;;;;;;5018775;28;20435;-68
2022/10/05 13:44:16;;;;;;;3.63;2.47;;;20.60;1.00;;;;;;5023485;28;20473;-67
2022/10/05 13:46:49;;;;;;;3.83;2.60;;;20.50;1.00;;;;;;5015028;28;20468;-68
2022/10/05 13:49:28;;;;;;;4.70;2.73;;;20.40;1.00;;;;;;5024453;28;20478;-68
2022/10/05 13:52:06;;;;;;;3.17;2.53;;;20.50;1.00;;;;;;5015268;28;20531;-68
2022/10/05 13:54:42;;;;;;;6.40;3.10;;;20.50;1.00;;;;;;5019081;28;20692;-68
2022/10/05 13:57:23;;;;;;;4.80;2.73;;;20.50;1.00;;;;;;5022518;28;20818;-67
2022/10/05 13:59:55;;;;;;;5.17;3.27;;;20.50;1.00;;;;;;5025993;28;20411;-67
2022/10/05 14:02:29;;;;;;;3.30;2.80;;;20.50;1.00;;;;;;5020161;28;20430;-66
2022/10/05 14:05:01;;;;;;;5.67;3.77;;;20.50;1.00;;;;;;5014785;28;20553;-68
2022/10/05 14:07:37;;;;;;;2.93;2.60;;;20.40;1.00;;;;;;5026626;28;20558;-67
2022/10/05 14:10:12;;;;;;;3.93;3.07;;;20.40;1.00;;;;;;5014752;28;20411;-67
2022/10/05 14:12:44;;;;;;;3.30;2.50;;;20.30;1.00;;;;;;5023203;28;20428;-68
2022/10/05 14:15:21;;;;;;;3.30;3.00;;;20.20;1.00;;;;;;5015802;28;20451;-68
2022/10/05 14:17:51;;;;;;;4.97;3.40;;;20.10;1.00;;;;;;5015327;28;20487;-67
2022/10/05 14:20:24;;;;;;;4.47;3.33;;;20.20;1.00;;;;;;5018618;28;20428;-67